createdAt,value
2023-04-05T00:01:32.708Z,56.50
2023-04-05T00:04:35.907Z,56.60
2023-04-05T00:07:39.649Z,56.70
2023-04-05T00:10:42.855Z,56.80
2023-04-05T00:13:45.977Z,56.90
2023-04-05T00:16:50.683Z,56.90
2023-04-05T00:19:57.391Z,56.90
2023-04-05T00:23:00.928Z,57.10
2023-04-05T00:26:04.215Z,57.10
2023-04-05T00:29:07.425Z,57.30
2023-04-05T00:32:13.338Z,57.40
2023-04-05T00:35:16.610Z,57.40
2023-04-05T00:38:19.675Z,57.60
2023-04-05T00:41:22.898Z,57.60
2023-04-05T00:44:28.872Z,57.70
2023-04-05T00:47:33.292Z,57.80
2023-04-05T00:50:36.901Z,57.70
2023-04-05T00:53:40.746Z,57.70
2023-04-05T00:56:43.903Z,57.90
2023-04-05T00:59:47.096Z,57.90
2023-04-05T01:02:57.785Z,58.00
2023-04-05T01:06:17.901Z,58.00
2023-04-05T01:09:30.649Z,58.00
2023-04-05T01:12:35.365Z,57.90
2023-04-05T01:15:38.543Z,57.90
2023-04-05T01:18:46.622Z,57.80
2023-04-05T01:22:20.274Z,58.00
2023-04-05T01:26:07.127Z,58.00
2023-04-05T01:29:46.180Z,57.80
2023-04-05T01:32:58.202Z,57.90
2023-04-05T01:36:08.531Z,58.00
2023-04-05T01:39:15.538Z,58.10
2023-04-05T01:42:25.378Z,58.20
2023-04-05T01:45:29.933Z,58.20
2023-04-05T01:48:32.931Z,58.40
2023-04-05T01:51:35.928Z,58.40
2023-04-05T01:54:38.929Z,58.40
2023-04-05T01:57:41.877Z,58.30
2023-04-05T02:00:46.480Z,58.30
2023-04-05T02:03:50.027Z,58.30
2023-04-05T02:06:55.812Z,58.20
2023-04-05T02:09:58.803Z,58.20
2023-04-05T02:13:02.280Z,58.30
2023-04-05T02:16:07.058Z,58.30
2023-04-05T02:19:10.494Z,58.30
2023-04-05T02:22:14.166Z,58.30
2023-04-05T02:25:17.304Z,58.30
2023-04-05T02:28:20.349Z,58.20
2023-04-05T02:31:24.794Z,58.00
2023-04-05T02:34:27.888Z,57.90
2023-04-05T02:37:32.357Z,57.90
2023-04-05T02:40:36.524Z,58.00
2023-04-05T02:43:39.735Z,58.00
2023-04-05T02:46:44.466Z,58.20
2023-04-05T02:49:47.610Z,58.20
2023-04-05T02:52:50.983Z,58.20
2023-04-05T02:55:57.304Z,58.10
2023-04-05T02:59:00.653Z,58.00
2023-04-05T03:02:05.285Z,58.10
2023-04-05T03:05:10.093Z,58.20
2023-04-05T03:08:18.607Z,58.40
2023-04-05T03:11:21.646Z,58.50
2023-04-05T03:14:24.675Z,58.50
2023-04-05T03:17:29.055Z,58.50
2023-04-05T03:20:32.135Z,58.70
2023-04-05T03:23:35.115Z,58.80
2023-04-05T03:26:38.146Z,59.00
2023-04-05T03:29:41.159Z,59.10
2023-04-05T03:32:46.152Z,59.20
2023-04-05T03:35:50.003Z,59.30
2023-04-05T03:38:53.069Z,59.30
2023-04-05T03:41:56.876Z,59.40
2023-04-05T03:44:59.985Z,59.50
2023-04-05T03:48:05.109Z,59.50
2023-04-05T03:51:08.143Z,59.50
2023-04-05T03:54:11.215Z,59.50
2023-04-05T03:57:17.014Z,59.80
2023-04-05T04:00:20.391Z,59.80
2023-04-05T04:03:26.127Z,60.00
2023-04-05T04:06:30.683Z,60.00
2023-04-05T04:09:34.160Z,60.00
2023-04-05T04:12:37.229Z,60.00
2023-04-05T04:15:40.969Z,60.10
2023-04-05T04:18:45.664Z,60.30
2023-04-05T04:21:52.008Z,60.30
2023-04-05T04:24:55.252Z,60.00
2023-04-05T04:27:59.164Z,59.70
2023-04-05T04:31:04.836Z,59.60
2023-04-05T04:34:10.264Z,59.90
2023-04-05T04:37:17.708Z,59.70
2023-04-05T04:40:21.284Z,59.60
2023-04-05T04:43:26.733Z,59.50
2023-04-05T04:46:34.876Z,59.40
2023-04-05T04:49:39.853Z,59.40
2023-04-05T04:52:44.622Z,59.50
2023-04-05T04:55:50.374Z,59.60
2023-04-05T04:58:56.006Z,59.60
2023-04-05T05:01:58.986Z,59.60
2023-04-05T05:05:03.519Z,59.60
2023-04-05T05:08:06.988Z,59.50
2023-04-05T05:11:10.596Z,58.80
2023-04-05T05:14:13.750Z,58.70
2023-04-05T05:17:16.933Z,58.70
2023-04-05T05:20:21.987Z,58.50
2023-04-05T05:23:25.076Z,58.70
2023-04-05T05:26:28.062Z,58.50
2023-04-05T05:29:31.709Z,58.50
2023-04-05T05:32:34.808Z,58.50
2023-04-05T05:35:39.169Z,58.10
2023-04-05T05:38:43.065Z,58.10
2023-04-05T05:41:46.402Z,58.10
2023-04-05T05:44:49.386Z,58.20
2023-04-05T05:47:52.370Z,57.90
2023-04-05T05:50:57.315Z,57.70
2023-04-05T05:54:00.772Z,57.50
2023-04-05T05:57:03.809Z,57.50
2023-04-05T06:00:10.700Z,57.50
2023-04-05T06:03:14.174Z,57.60
2023-04-05T06:06:18.550Z,57.40
2023-04-05T06:09:23.134Z,57.50
2023-04-05T06:12:28.260Z,57.40
2023-04-05T06:15:32.568Z,57.70
2023-04-05T06:18:37.958Z,56.70
2023-04-05T06:21:42.302Z,56.60
2023-04-05T06:24:45.311Z,56.80
2023-04-05T06:27:48.269Z,56.40
2023-04-05T06:30:51.372Z,56.10
2023-04-05T06:33:54.389Z,56.40
2023-04-05T06:36:59.802Z,56.40
2023-04-05T06:40:03.013Z,56.30
2023-04-05T06:43:07.070Z,55.90
2023-04-05T06:46:12.449Z,56.10
2023-04-05T06:49:15.695Z,56.00
2023-04-05T06:52:20.036Z,56.30
2023-04-05T06:55:23.150Z,56.00
2023-04-05T06:58:27.539Z,56.00
2023-04-05T07:01:31.045Z,56.10
2023-04-05T07:04:36.872Z,56.00
2023-04-05T07:07:44.373Z,56.00
2023-04-05T07:10:47.798Z,55.90
2023-04-05T07:13:51.614Z,56.00
2023-04-05T07:16:54.893Z,56.40
2023-04-05T07:19:59.442Z,56.80
2023-04-05T07:23:05.527Z,57.70
2023-04-05T07:26:08.572Z,58.00
2023-04-05T07:29:13.160Z,58.10
2023-04-05T07:32:16.507Z,57.90
2023-04-05T07:35:19.724Z,57.80
2023-04-05T07:38:24.422Z,57.10
2023-04-05T07:41:31.663Z,57.20
2023-04-05T07:44:34.630Z,56.80
2023-04-05T07:47:37.866Z,56.20
2023-04-05T07:50:42.446Z,55.90
2023-04-05T07:53:47.160Z,55.40
2023-04-05T07:56:50.500Z,55.00
2023-04-05T07:59:55.727Z,55.10
2023-04-05T08:03:01.753Z,54.50
2023-04-05T08:06:11.993Z,54.70
2023-04-05T08:09:17.949Z,54.80
2023-04-05T08:12:20.877Z,54.60
2023-04-05T08:15:23.881Z,54.50
2023-04-05T08:18:26.860Z,54.70
2023-04-05T08:21:29.937Z,53.60
2023-04-05T08:24:34.345Z,54.00
2023-04-05T08:27:37.346Z,53.80
2023-04-05T08:30:40.561Z,53.30
2023-04-05T08:33:43.874Z,52.60
2023-04-05T08:36:48.278Z,52.30
2023-04-05T08:39:53.540Z,52.10
2023-04-05T08:43:03.664Z,51.30
2023-04-05T08:46:13.435Z,50.80
2023-04-05T08:49:16.893Z,51.50
2023-04-05T08:52:20.137Z,51.30
2023-04-05T08:55:24.776Z,51.60
2023-04-05T08:58:29.342Z,51.20
2023-04-05T09:01:33.548Z,51.30
2023-04-05T09:04:44.565Z,50.50
2023-04-05T09:07:48.025Z,51.00
2023-04-05T09:10:52.872Z,51.10
2023-04-05T09:13:55.976Z,51.20
2023-04-05T09:17:01.339Z,51.70
2023-04-05T09:20:04.509Z,51.70
2023-04-05T09:23:07.577Z,50.10
2023-04-05T09:26:22.485Z,50.00
2023-04-05T09:29:33.324Z,50.20
2023-04-05T09:32:36.478Z,50.50
2023-04-05T09:35:39.508Z,50.50
2023-04-05T09:38:47.574Z,50.70
2023-04-05T09:42:07.165Z,50.20
2023-04-05T09:45:11.001Z,50.70
2023-04-05T09:48:14.385Z,49.30
2023-04-05T09:51:18.146Z,48.70
2023-04-05T09:54:21.188Z,49.80
2023-04-05T09:57:27.098Z,49.00
2023-04-05T10:00:31.293Z,49.10
2023-04-05T10:03:47.881Z,49.10
2023-04-05T10:06:51.393Z,48.80
2023-04-05T10:09:54.409Z,48.10
2023-04-05T10:12:59.161Z,48.10
2023-04-05T10:16:07.055Z,48.90
2023-04-05T10:19:19.595Z,48.20
2023-04-05T10:22:31.019Z,47.60
2023-04-05T10:25:48.587Z,47.70
2023-04-05T10:28:57.087Z,48.20
2023-04-05T10:32:06.423Z,48.00
2023-04-05T10:35:16.642Z,48.50
2023-04-05T10:38:25.644Z,47.60
2023-04-05T10:41:31.516Z,48.00
2023-04-05T10:44:37.730Z,48.30
2023-04-05T10:47:48.596Z,48.30
2023-04-05T10:50:51.997Z,48.40
2023-04-05T10:53:57.767Z,48.70
2023-04-05T10:57:02.892Z,49.30
2023-04-05T11:00:09.151Z,49.00
2023-04-05T11:03:12.150Z,49.30
2023-04-05T11:06:26.532Z,49.60
2023-04-05T11:09:29.888Z,50.00
2023-04-05T11:13:04.681Z,49.70
2023-04-05T11:16:11.590Z,49.00
2023-04-05T11:19:17.513Z,49.30
2023-04-05T11:22:28.921Z,49.50
2023-04-05T11:25:33.407Z,49.60
2023-04-05T11:28:40.900Z,49.50
2023-04-05T11:35:23.125Z,49.40
2023-04-05T11:38:26.415Z,49.30
2023-04-05T11:41:34.630Z,49.20
2023-04-05T11:44:46.401Z,49.10
2023-04-05T11:47:49.524Z,49.80
2023-04-05T11:50:55.991Z,50.70
2023-04-05T11:53:59.246Z,51.30
2023-04-05T11:57:03.830Z,51.00
2023-04-05T12:00:09.618Z,51.50
2023-04-05T12:03:13.994Z,51.80
2023-04-05T12:06:18.718Z,51.70
2023-04-05T12:09:21.975Z,51.50
2023-04-05T12:12:25.280Z,50.60
2023-04-05T12:15:28.459Z,50.10
2023-04-05T12:18:33.358Z,49.10
2023-04-05T12:21:38.441Z,48.70
2023-04-05T12:24:41.738Z,49.00
2023-04-05T12:27:46.656Z,49.60
2023-04-05T12:30:50.636Z,50.50
2023-04-05T12:34:00.368Z,50.40
2023-04-05T12:37:05.093Z,50.40
2023-04-05T12:40:09.370Z,50.30
2023-04-05T12:43:19.495Z,50.50
2023-04-05T12:46:22.570Z,50.00
2023-04-05T12:49:28.552Z,49.50
2023-04-05T12:52:36.139Z,49.80
2023-04-05T12:55:45.842Z,49.80
2023-04-05T12:58:51.017Z,49.30
2023-04-05T13:01:54.529Z,49.40
2023-04-05T13:04:57.610Z,49.10
2023-04-05T13:08:01.972Z,49.60
2023-04-05T13:11:04.956Z,48.00
2023-04-05T13:14:08.490Z,48.30
2023-04-05T13:17:11.608Z,48.30
2023-04-05T13:20:14.626Z,48.10
2023-04-05T13:23:19.099Z,47.20
2023-04-05T13:26:23.559Z,46.60
2023-04-05T13:29:26.583Z,46.00
2023-04-05T13:32:29.768Z,46.20
2023-04-05T13:35:33.128Z,46.10
2023-04-05T13:38:37.941Z,46.70
2023-04-05T13:41:41.040Z,46.80
2023-04-05T13:44:44.352Z,46.80
2023-04-05T13:47:47.621Z,47.40
2023-04-05T13:50:50.822Z,48.00
2023-04-05T13:53:55.548Z,47.90
2023-04-05T13:56:59.097Z,47.90
2023-04-05T14:00:02.164Z,48.20
2023-04-05T14:03:05.526Z,48.20
2023-04-05T14:06:08.928Z,48.50
2023-04-05T14:09:13.572Z,48.50
2023-04-05T14:12:16.958Z,48.10
2023-04-05T14:15:20.758Z,47.70
2023-04-05T14:18:24.000Z,46.80
2023-04-05T14:21:27.729Z,46.80
2023-04-05T14:24:32.907Z,46.10
2023-04-05T14:27:41.248Z,45.40
2023-04-05T14:30:44.469Z,45.70
2023-04-05T14:33:47.680Z,45.70
2023-04-05T14:36:51.100Z,45.50
2023-04-05T14:39:55.848Z,45.00
2023-04-05T14:42:59.050Z,44.50
2023-04-05T14:46:02.400Z,45.40
2023-04-05T14:49:05.717Z,45.30
2023-04-05T14:52:08.902Z,45.40
2023-04-05T14:55:14.123Z,45.10
2023-04-05T14:58:17.354Z,45.40
2023-04-05T15:01:20.626Z,45.70
2023-04-05T15:04:24.419Z,45.50
2023-04-05T15:07:28.051Z,45.90
2023-04-05T15:10:32.787Z,45.80
2023-04-05T15:13:36.496Z,45.90
2023-04-05T15:16:39.869Z,46.70
2023-04-05T15:19:43.154Z,46.90
2023-04-05T15:22:46.316Z,47.20
2023-04-05T15:25:51.077Z,47.50
2023-04-05T15:28:54.385Z,47.90
2023-04-05T15:31:58.022Z,47.80
2023-04-05T15:35:01.276Z,47.30
2023-04-05T15:38:04.988Z,48.20
2023-04-05T15:41:11.127Z,48.90
2023-04-05T15:44:14.584Z,50.20
2023-04-05T15:47:17.750Z,50.90
2023-04-05T15:50:21.775Z,49.80
2023-04-05T15:53:25.059Z,49.70
2023-04-05T15:56:29.750Z,49.80
2023-04-05T15:59:32.949Z,49.40
2023-04-05T16:02:38.273Z,49.10
2023-04-05T16:05:41.525Z,49.00
2023-04-05T16:08:44.664Z,49.20
2023-04-05T16:11:49.584Z,48.50
2023-04-05T16:14:52.922Z,48.40
2023-04-05T16:17:56.123Z,48.80
2023-04-05T16:20:59.364Z,48.30
2023-04-05T16:24:03.929Z,48.40
2023-04-05T16:27:08.561Z,48.60
2023-04-05T16:30:12.292Z,48.90
2023-04-05T16:33:15.766Z,49.00
2023-04-05T16:36:22.318Z,49.00
2023-04-05T16:39:25.458Z,49.00
2023-04-05T16:42:30.740Z,49.10
2023-04-05T16:45:36.412Z,49.00
2023-04-05T16:48:39.927Z,48.80
2023-04-05T16:51:43.358Z,49.40
2023-04-05T16:54:48.176Z,49.70
2023-04-05T16:57:56.663Z,49.10
2023-04-05T17:01:00.408Z,49.20
2023-04-05T17:04:03.862Z,49.90
2023-04-05T17:07:07.852Z,49.20
2023-04-05T17:10:11.195Z,49.50
2023-04-05T17:13:16.425Z,49.70
2023-04-05T17:16:22.009Z,49.60
2023-04-05T17:19:25.346Z,50.40
2023-04-05T17:22:28.758Z,50.20
2023-04-05T17:25:32.414Z,50.30
2023-04-05T17:28:37.083Z,50.50
2023-04-05T17:31:42.011Z,50.70
2023-04-05T17:34:45.362Z,50.50
2023-04-05T17:37:48.628Z,51.20
2023-04-05T17:40:53.445Z,51.20
2023-04-05T17:43:58.678Z,51.10
2023-04-05T17:47:09.004Z,51.60
2023-04-05T17:50:12.999Z,51.90
2023-04-05T17:53:16.974Z,52.00
2023-04-05T17:56:21.469Z,52.20
2023-04-05T17:59:26.547Z,52.20
2023-04-05T18:02:30.221Z,52.50
2023-04-05T18:05:33.705Z,52.50
2023-04-05T18:08:36.963Z,52.80
2023-04-05T18:11:41.092Z,52.90
2023-04-05T18:14:46.392Z,52.80
2023-04-05T18:17:49.955Z,52.70
2023-04-05T18:20:53.778Z,53.30
2023-04-05T18:23:58.021Z,53.60
2023-04-05T18:27:01.161Z,54.10
2023-04-05T18:30:07.897Z,54.10
2023-04-05T18:33:11.455Z,54.20
2023-04-05T18:36:14.890Z,54.40
2023-04-05T18:39:20.044Z,54.50
2023-04-05T18:42:23.327Z,54.50
2023-04-05T18:45:28.026Z,54.20
2023-04-05T18:48:31.476Z,54.50
2023-04-05T18:51:34.692Z,54.70
2023-04-05T18:54:39.735Z,54.80
2023-04-05T18:57:43.315Z,55.10
2023-04-05T19:00:47.946Z,55.10
2023-04-05T19:03:51.578Z,55.00
2023-04-05T19:06:56.796Z,55.40
2023-04-05T19:10:00.052Z,55.70
2023-04-05T19:13:03.633Z,55.80
2023-04-05T19:16:08.619Z,55.30
2023-04-05T19:19:11.875Z,55.20
2023-04-05T19:22:15.394Z,55.50
2023-04-05T19:25:18.671Z,55.20
2023-04-05T19:28:22.270Z,55.40
2023-04-05T19:31:27.790Z,55.50
2023-04-05T19:34:32.736Z,55.20
2023-04-05T19:37:36.134Z,55.80
2023-04-05T19:40:40.034Z,55.40
2023-04-05T19:43:43.278Z,55.50
2023-04-05T19:46:48.104Z,55.50
2023-04-05T19:49:52.590Z,55.70
2023-04-05T19:52:56.003Z,56.10
2023-04-05T19:55:59.256Z,55.90
2023-04-05T19:59:04.652Z,56.00
2023-04-05T20:02:20.340Z,55.90
2023-04-05T20:05:57.613Z,55.80
2023-04-05T20:09:04.577Z,55.80
2023-04-05T20:12:08.538Z,56.00
2023-04-05T20:15:13.611Z,56.20
2023-04-05T20:18:23.934Z,56.20
2023-04-05T20:21:27.236Z,56.50
2023-04-05T20:24:30.735Z,56.10
2023-04-05T20:27:33.960Z,55.80
2023-04-05T20:30:37.167Z,55.50
2023-04-05T20:33:47.989Z,55.40
2023-04-05T20:36:52.598Z,55.40
2023-04-05T20:39:55.769Z,55.50
2023-04-05T20:43:00.905Z,56.10
2023-04-05T20:46:06.140Z,56.20
2023-04-05T20:49:11.723Z,56.30
2023-04-05T20:52:15.921Z,56.40
2023-04-05T20:55:19.168Z,56.80
2023-04-05T20:58:23.795Z,56.80
2023-04-05T21:01:27.314Z,56.80
2023-04-05T21:04:31.922Z,56.90
2023-04-05T21:07:36.464Z,56.90
2023-04-05T21:10:40.058Z,57.30
2023-04-05T21:13:43.519Z,57.20
2023-04-05T21:16:47.001Z,57.40
2023-04-05T21:19:51.617Z,57.60
2023-04-05T21:22:55.063Z,57.70
2023-04-05T21:25:59.204Z,57.70
2023-04-05T21:29:02.621Z,57.70
2023-04-05T21:32:06.247Z,57.80
2023-04-05T21:35:11.577Z,58.10
2023-04-05T21:38:15.963Z,58.20
2023-04-05T21:41:19.292Z,58.10
2023-04-05T21:44:23.726Z,58.10
2023-04-05T21:47:26.953Z,58.20
2023-04-05T21:50:31.997Z,58.10
2023-04-05T21:53:35.343Z,57.80
2023-04-05T21:56:38.828Z,58.20
2023-04-05T21:59:42.083Z,58.10
2023-04-05T22:02:45.591Z,57.90
2023-04-05T22:05:50.191Z,58.40
2023-04-05T22:08:54.583Z,58.30
2023-04-05T22:11:58.947Z,58.50
2023-04-05T22:15:02.936Z,58.50
2023-04-05T22:18:06.755Z,58.80
2023-04-05T22:21:11.420Z,58.90
2023-04-05T22:24:16.124Z,58.80
2023-04-05T22:27:19.742Z,59.10
2023-04-05T22:30:23.060Z,59.20
2023-04-05T22:33:26.263Z,59.60
2023-04-05T22:36:31.569Z,59.50
2023-04-05T22:39:34.764Z,59.50
2023-04-05T22:42:39.204Z,59.60
2023-04-05T22:45:42.384Z,59.70
2023-04-05T22:48:45.891Z,59.70
2023-04-05T22:51:50.573Z,59.80
2023-04-05T22:54:53.778Z,60.20
2023-04-05T22:57:56.983Z,60.20
2023-04-05T23:01:01.655Z,60.20
2023-04-05T23:04:05.150Z,60.40
2023-04-05T23:07:09.767Z,60.20
2023-04-05T23:10:13.088Z,60.50
2023-04-05T23:13:17.154Z,60.50
2023-04-05T23:16:20.440Z,60.70
2023-04-05T23:19:23.821Z,60.60
2023-04-05T23:22:28.847Z,60.70
2023-04-05T23:25:32.103Z,61.00
2023-04-05T23:28:35.251Z,61.10
2023-04-05T23:31:38.539Z,61.40
2023-04-05T23:34:41.774Z,61.40
2023-04-05T23:37:46.935Z,61.40
2023-04-05T23:40:50.139Z,61.30
2023-04-05T23:43:53.393Z,61.30
2023-04-05T23:46:56.615Z,61.60
2023-04-05T23:49:59.848Z,61.70
2023-04-05T23:53:04.560Z,61.80
2023-04-05T23:56:11.711Z,62.00
2023-04-05T23:59:15.709Z,62.00
